La Esperanza, Honduras
Current Conditions -  °F | °C
As of 1:58 AM on Sunday 23 Nov 2014 (Local Time) from MHSC Reporting Station
Overcast Overcast  
Wind Chill: 69°   Ceiling: 4700
Heat Index: 69°   Visibility: 6mi
Dew Point: 69°   Wind: 0mph
Humidity: 100%   Direction: NA
Pressure: 29.97"   Gusts: NA
Location:  14.31°N, 88.18°W
Report Text: MHSC 230758Z AUTO 00000KT 9999 FEW034 BKN047 OVC060 21/21 A2997 RMK AO2 SLP111 T02080208 $
Loading
Personal Weather Stations






























Interactive Weather Map New forecast layout! Learn more

10-Day Weather Forecast

Advertisements
Track Severe Weather on mobile